M47 weather

Public forecast

Using degrees Fahrenheit for public forecast. Weather courtesy of forecast.io.

Closest aviation weather report (METAR) to Fife Lake Seaplane Base

Closest report is Cherry Capital Airport, 14.6 nm (27.0 km) NW. Retrieved 2020/08/14 00:53 UTC (46 minutes ago):

KTVC 140053Z 30004KT 10SM FEW110 SCT250 24/21 A3007 RMK AO2 SLP180 T02390206

Closest aviation forecast (TAF) to Fife Lake Seaplane Base

Closest forecast is Cherry Capital Airport, 14.6 nm (27.0 km) NW. Retrieved 2020-08-14 00:22 UTC (1 hour ago):

TAF KTVC 132320Z 1400/1424 VRB03KT P6SM SCT080